Time;durP1;ratioP1;P1;durP2;ratioP2;P2;SDS_P1;SDS_P2;PMS_P1;PMS_P2;Temp;Humidity;BMP_temperature;BMP_pressure;BME280_temperature;BME280_humidity;BME280_pressure;Samples;Min_cycle;Max_cycle;Signal;HPM_P1;HPM_P2
2022/05/03 00:01:07;;;;;;;0.52;0.50;;;;;;;19.76;45.80;101955.72;5025642;28;20041;-46
2022/05/03 00:04:06;;;;;;;0.70;0.70;;;;;;;19.75;46.08;101951.31;5042521;28;20021;-44
2022/05/03 00:06:43;;;;;;;0.77;0.73;;;;;;;19.73;46.09;101952.31;5042172;28;20033;-46
2022/05/03 00:09:12;;;;;;;0.93;0.63;;;;;;;19.72;46.09;101942.53;5041795;28;20045;-45
2022/05/03 00:11:37;;;;;;;0.80;0.80;;;;;;;19.71;45.70;101942.69;5042048;28;20021;-50
2022/05/03 00:14:31;;;;;;;0.60;0.60;;;;;;;19.72;45.85;101945.22;5042631;28;20025;-50
2022/05/03 00:16:57;;;;;;;0.60;0.60;;;;;;;19.61;46.05;101928.38;5042141;28;20021;-45
2022/05/03 00:19:22;;;;;;;1.15;0.68;;;;;;;19.70;46.07;101946.34;5041525;28;20041;-46
2022/05/03 00:21:48;;;;;;;0.50;0.50;;;;;;;19.68;45.90;101941.13;5043414;28;20018;-46
2022/05/03 00:24:13;;;;;;;0.65;0.65;;;;;;;19.69;45.58;101948.19;5042766;28;20056;-49
2022/05/03 00:26:38;;;;;;;0.50;0.50;;;;;;;19.69;45.68;101947.34;5042280;28;20017;-45
2022/05/03 00:29:04;;;;;;;0.52;0.52;;;;;;;19.66;45.61;101936.84;5041319;28;20061;-45
2022/05/03 00:31:30;;;;;;;1.00;0.70;;;;;;;19.68;45.85;101940.28;5036461;28;20017;-49
2022/05/03 00:33:56;;;;;;;0.57;0.57;;;;;;;19.68;45.53;101938.41;5043180;28;20033;-45
2022/05/03 00:36:22;;;;;;;0.85;0.60;;;;;;;19.67;45.60;101931.31;5042887;28;20052;-44
2022/05/03 00:38:48;;;;;;;0.70;0.70;;;;;;;19.67;45.84;101935.88;5042783;28;20029;-45
2022/05/03 00:41:36;;;;;;;0.73;0.60;;;;;;;19.68;45.66;101946.50;5043158;28;20060;-45
2022/05/03 00:47:04;;;;;;;0.50;0.50;;;;;;;19.64;45.53;101937.00;5043583;28;20063;-46
2022/05/03 00:49:53;;;;;;;0.60;0.60;;;;;;;19.65;45.66;101936.00;5041472;28;20071;-48
2022/05/03 00:52:26;;;;;;;0.82;0.75;;;;;;;19.64;45.58;101937.00;5042148;28;20037;-49
2022/05/03 00:55:18;;;;;;;0.60;0.60;;;;;;;19.63;45.61;101938.03;5041612;28;20033;-45
2022/05/03 00:58:01;;;;;;;0.75;0.75;;;;;;;19.62;45.59;101939.00;5042204;28;20037;-51
2022/05/03 01:00:26;;;;;;;0.60;0.60;;;;;;;19.62;45.22;101936.28;5041990;28;20029;-50
2022/05/03 01:03:18;;;;;;;0.82;0.50;;;;;;;19.61;45.18;101931.91;5045697;28;20496;-48
2022/05/03 01:06:09;;;;;;;0.60;0.60;;;;;;;19.61;45.25;101931.91;5046585;28;20022;-47
2022/05/03 01:08:46;;;;;;;0.73;0.73;;;;;;;19.59;45.41;101920.41;5045215;28;20025;-53
2022/05/03 01:11:47;;;;;;;1.00;0.73;;;;;;;19.60;45.48;101932.03;5046493;28;20030;-49
2022/05/03 01:14:37;;;;;;;0.70;0.70;;;;;;;19.57;45.15;101919.69;4983942;28;20031;-49
2022/05/03 01:17:14;;;;;;;0.68;0.60;;;;;;;19.57;45.40;101922.38;4969024;28;20081;-47
2022/05/03 01:19:39;;;;;;;0.70;0.70;;;;;;;19.56;45.37;101922.53;4968567;28;20031;-47
2022/05/03 01:22:23;;;;;;;1.00;0.70;;;;;;;19.56;45.13;101926.06;4985208;28;20041;-50
2022/05/03 01:24:54;;;;;;;0.80;0.60;;;;;;;19.55;45.32;101921.69;4968625;28;20109;-48
2022/05/03 01:27:38;;;;;;;0.60;0.60;;;;;;;19.56;45.19;101919.84;4985064;28;20026;-47
2022/05/03 01:30:04;;;;;;;0.60;0.60;;;;;;;19.54;45.14;101925.41;4967828;28;20027;-47
2022/05/03 01:32:31;;;;;;;1.60;0.70;;;;;;;19.54;45.27;101922.69;4984874;28;20050;-47
2022/05/03 01:34:57;;;;;;;0.60;0.60;;;;;;;19.53;45.17;101920.13;4984400;28;20031;-47
2022/05/03 01:37:39;;;;;;;0.60;0.60;;;;;;;19.54;44.78;101914.59;4968457;28;20050;-46
2022/05/03 01:40:12;;;;;;;0.65;0.65;;;;;;;19.54;45.28;101921.81;4969175;28;20062;-51
2022/05/03 01:42:49;;;;;;;0.70;0.70;;;;;;;19.52;45.15;101913.88;4968526;28;20026;-49
2022/05/03 01:45:31;;;;;;;0.52;0.52;;;;;;;19.53;45.14;101915.56;4983862;28;20062;-48
2022/05/03 01:48:13;;;;;;;0.80;0.70;;;;;;;19.51;44.93;101914.03;4984617;28;20031;-48
2022/05/03 01:50:42;;;;;;;0.70;0.70;;;;;;;19.49;45.06;101920.41;4995341;28;20065;-50
2022/05/03 01:53:14;;;;;;;;;;;;;;;19.44;45.17;101911.06;5025418;28;20030;-51
2022/05/03 01:56:03;;;;;;;0.60;0.60;;;;;;;19.47;44.78;101913.47;5026377;28;19944;-52
2022/05/03 01:58:47;;;;;;;;;;;;;;;19.41;45.08;101914.06;5008407;28;20041;-52
2022/05/03 02:01:25;;;;;;;0.90;0.70;;;;;;;19.42;44.99;101911.22;5057800;28;19913;-51
2022/05/03 02:03:51;;;;;;;0.63;0.60;;;;;;;19.42;45.04;101910.38;5024603;28;20491;-49
2022/05/03 02:06:25;;;;;;;0.60;0.60;;;;;;;19.43;44.63;101907.53;5025653;28;20057;-52
2022/05/03 02:09:06;;;;;;;1.00;0.85;;;;;;;19.44;44.64;101905.69;5025584;28;20045;-46
2022/05/03 02:11:38;;;;;;;0.90;0.75;;;;;;;19.43;44.68;101906.69;5043606;28;20037;-49
2022/05/03 02:17:26;;;;;;;1.42;0.68;;;;;;;19.41;44.69;101901.44;5045780;28;20064;-50
2022/05/03 02:20:10;;;;;;;;;;;;;;;19.36;44.83;101901.03;5045451;28;20030;-49
2022/05/03 02:22:54;;;;;;;0.73;0.70;;;;;;;19.37;44.90;101899.16;5026037;28;19920;-47
2022/05/03 02:25:35;;;;;;;0.68;0.63;;;;;;;19.38;44.57;101898.19;5025490;28;20046;-47
2022/05/03 02:28:14;;;;;;;0.95;0.60;;;;;;;19.38;44.71;101903.59;5025508;28;20060;-48
2022/05/03 02:30:39;;;;;;;0.57;0.55;;;;;;;19.37;44.45;101909.97;5040444;28;20021;-47
2022/05/03 02:33:13;;;;;;;0.68;0.60;;;;;;;19.37;44.34;101902.75;5025367;28;20038;-46
2022/05/03 02:35:44;;;;;;;1.08;0.60;;;;;;;19.37;44.53;101902.75;5040204;28;20041;-46
2022/05/03 02:38:12;;;;;;;0.50;0.50;;;;;;;19.37;44.60;101916.22;5040131;28;20026;-47
2022/05/03 02:40:43;;;;;;;0.60;0.60;;;;;;;19.37;44.29;101902.75;5035570;28;20030;-48
2022/05/03 02:43:09;;;;;;;0.80;0.60;;;;;;;19.37;44.31;101899.16;5044795;28;20033;-47
2022/05/03 02:45:37;;;;;;;0.60;0.60;;;;;;;19.35;44.41;101896.63;5044611;28;20025;-47
2022/05/03 02:48:14;;;;;;;0.55;0.55;;;;;;;19.36;44.51;101894.78;5043746;28;20166;-46
2022/05/03 02:50:51;;;;;;;0.50;0.50;;;;;;;19.36;44.52;101897.47;5044624;28;20053;-48
2022/05/03 02:53:23;;;;;;;0.95;0.60;;;;;;;19.35;43.94;101901.19;5044705;28;20029;-48
2022/05/03 02:56:01;;;;;;;0.60;0.60;;;;;;;19.35;44.40;101907.41;5043664;28;20085;-45
2022/05/03 02:58:48;;;;;;;1.02;0.60;;;;;;;19.34;44.19;101897.63;5042913;28;20690;-50
2022/05/03 03:01:47;;;;;;;1.40;0.70;;;;;;;19.34;44.18;101896.78;5043233;28;20059;-46
2022/05/03 03:04:34;;;;;;;0.77;0.60;;;;;;;19.32;44.23;101901.47;5044320;28;20021;-45
2022/05/03 03:07:00;;;;;;;0.50;0.50;;;;;;;19.28;44.21;101887.41;5044917;28;20116;-47
2022/05/03 03:09:38;;;;;;;0.50;0.50;;;;;;;19.31;43.92;101907.84;5042560;28;20025;-46
2022/05/03 03:12:25;;;;;;;0.82;0.70;;;;;;;19.30;44.20;101898.09;5044585;28;20097;-47
2022/05/03 03:14:57;;;;;;;0.55;0.55;;;;;;;19.30;43.88;101903.47;5043358;28;20037;-48
2022/05/03 03:17:28;;;;;;;0.70;0.65;;;;;;;19.29;44.13;101897.22;5026844;28;20021;-48
2022/05/03 03:20:03;;;;;;;1.05;0.50;;;;;;;19.28;44.21;101891.97;5042652;28;20093;-46
2022/05/03 03:22:31;;;;;;;0.73;0.73;;;;;;;19.27;44.12;101893.81;5044707;28;20072;-46
2022/05/03 03:25:01;;;;;;;0.47;0.47;;;;;;;19.28;43.79;101900.91;5042492;28;20037;-47
2022/05/03 03:27:28;;;;;;;0.65;0.65;;;;;;;19.27;43.62;101904.59;5044656;28;20083;-48
2022/05/03 03:29:56;;;;;;;0.70;0.70;;;;;;;19.27;44.09;101898.38;5042203;28;20017;-49
2022/05/03 03:32:24;;;;;;;0.80;0.60;;;;;;;19.22;43.92;101890.72;5044489;28;20029;-48
2022/05/03 03:34:52;;;;;;;0.60;0.60;;;;;;;19.23;43.51;101903.19;5043811;28;20021;-45
2022/05/03 03:37:18;;;;;;;0.60;0.60;;;;;;;19.25;43.68;101903.91;5044194;28;20071;-50
2022/05/03 03:39:43;;;;;;;0.60;0.60;;;;;;;19.23;43.76;101903.19;5042066;28;20056;-46
2022/05/03 03:42:09;;;;;;;0.68;0.60;;;;;;;19.22;43.46;101905.03;5043929;28;20030;-45
2022/05/03 03:44:34;;;;;;;0.50;0.50;;;;;;;19.22;43.77;101913.13;5042102;28;20041;-45
2022/05/03 03:47:01;;;;;;;0.60;0.50;;;;;;;19.21;43.50;101911.44;5042767;28;20037;-47
2022/05/03 03:49:28;;;;;;;0.52;0.52;;;;;;;19.21;43.73;101907.91;5043886;28;20022;-45
2022/05/03 03:51:54;;;;;;;0.50;0.50;;;;;;;19.21;43.64;101913.28;5042364;28;20679;-44
2022/05/03 03:54:19;;;;;;;0.43;0.43;;;;;;;19.21;43.65;101921.38;5043418;28;20036;-45
2022/05/03 03:56:45;;;;;;;0.50;0.50;;;;;;;19.21;43.45;101918.69;5042661;28;20029;-46
2022/05/03 03:59:12;;;;;;;0.50;0.50;;;;;;;19.19;43.28;101916.13;5042788;28;20033;-46
2022/05/03 04:01:38;;;;;;;0.68;0.68;;;;;;;19.18;43.34;101913.56;5042342;28;20101;-46
2022/05/03 04:04:04;;;;;;;0.70;0.52;;;;;;;19.16;43.40;101907.50;5043566;28;20029;-45
2022/05/03 04:06:29;;;;;;;0.52;0.52;;;;;;;19.18;43.34;101908.19;5042223;28;20053;-45
2022/05/03 04:08:54;;;;;;;0.70;0.60;;;;;;;19.17;43.25;101915.44;5042933;28;20079;-48
2022/05/03 04:11:19;;;;;;;0.60;0.60;;;;;;;19.16;43.44;101907.50;5043543;28;20029;-47
2022/05/03 04:13:45;;;;;;;0.70;0.70;;;;;;;19.14;43.63;101904.94;5042864;28;20033;-45
2022/05/03 04:16:10;;;;;;;0.90;0.50;;;;;;;19.15;43.23;101908.47;5043520;28;20036;-46
2022/05/03 04:18:45;;;;;;;0.60;0.60;;;;;;;19.14;43.37;101904.06;5043502;28;20018;-46
2022/05/03 04:21:15;;;;;;;0.65;0.52;;;;;;;19.14;43.05;101902.22;5038331;28;20017;-48
2022/05/03 04:23:40;;;;;;;1.30;0.60;;;;;;;19.13;43.56;101905.09;5041897;28;20047;-49
2022/05/03 04:26:06;;;;;;;0.77;0.60;;;;;;;19.13;43.50;101905.09;5040408;28;20108;-47
2022/05/03 04:28:31;;;;;;;0.68;0.50;;;;;;;19.15;43.54;101911.16;5035701;28;20030;-50
2022/05/03 04:30:56;;;;;;;0.90;0.60;;;;;;;19.14;43.48;101909.47;5041421;28;20037;-50
2022/05/03 04:33:21;;;;;;;0.60;0.60;;;;;;;19.14;43.89;101913.00;5037612;28;20029;-46
2022/05/03 04:35:47;;;;;;;0.68;0.68;;;;;;;19.12;43.46;101909.63;5041224;28;20090;-47
2022/05/03 04:38:12;;;;;;;1.88;0.52;;;;;;;19.13;43.50;101911.31;5047093;28;20104;-46
2022/05/03 04:40:37;;;;;;;0.80;0.73;;;;;;;19.13;43.32;101915.88;5046917;28;20336;-49
2022/05/03 04:43:02;;;;;;;0.70;0.70;;;;;;;19.11;43.59;101916.00;5041174;28;20749;-47
2022/05/03 04:45:28;;;;;;;0.68;0.60;;;;;;;19.13;43.41;101914.00;5042401;28;20132;-49
2022/05/03 04:47:53;;;;;;;0.70;0.60;;;;;;;19.12;43.75;101919.56;5046719;28;20055;-47
2022/05/03 04:50:18;;;;;;;0.60;0.60;;;;;;;19.12;43.46;101915.03;5043459;28;20054;-47
2022/05/03 04:52:43;;;;;;;1.13;0.70;;;;;;;19.13;43.43;101915.88;5042078;28;20614;-46
2022/05/03 04:55:08;;;;;;;0.60;0.50;;;;;;;19.12;43.50;101920.41;5042180;28;20030;-48
2022/05/03 04:57:34;;;;;;;0.60;0.60;;;;;;;19.08;43.51;101913.59;5044056;28;20121;-47
2022/05/03 05:00:00;;;;;;;0.80;0.73;;;;;;;19.11;43.83;101921.38;5040046;28;20030;-51
2022/05/03 05:02:25;;;;;;;0.68;0.60;;;;;;;19.11;43.75;101926.78;5042869;28;20021;-48
2022/05/03 05:04:51;;;;;;;0.70;0.70;;;;;;;19.09;43.63;101925.25;5040384;28;20033;-47
2022/05/03 05:07:16;;;;;;;0.60;0.55;;;;;;;19.11;43.52;101932.16;5046320;28;20048;-48
2022/05/03 05:10:23;;;;;;;1.00;0.80;;;;;;;19.11;43.82;101931.31;5045868;28;20017;-47
2022/05/03 05:12:26;;;;;;;0.60;0.50;;;;;;;19.11;43.89;101942.09;5045412;28;20029;-47
2022/05/03 05:14:51;;;;;;;0.70;0.50;;;;;;;19.09;43.47;101939.56;5046308;28;20056;-48
2022/05/03 05:17:17;;;;;;;0.60;0.60;;;;;;;19.08;44.00;101942.41;5043413;28;20121;-46
2022/05/03 05:19:42;;;;;;;1.08;0.60;;;;;;;19.10;43.91;101937.72;5046033;28;20032;-48
2022/05/03 05:22:07;;;;;;;0.60;0.60;;;;;;;19.10;43.63;101940.41;5046198;28;20029;-49
2022/05/03 05:24:32;;;;;;;0.80;0.60;;;;;;;19.09;43.72;101938.72;5046044;28;20025;-46
2022/05/03 05:26:57;;;;;;;0.50;0.50;;;;;;;19.09;44.14;101938.72;5040617;28;20021;-48
2022/05/03 05:29:23;;;;;;;0.82;0.70;;;;;;;19.09;43.64;101941.41;5045428;28;20021;-49
2022/05/03 05:31:48;;;;;;;0.40;0.40;;;;;;;19.08;43.85;101943.25;5047222;28;20026;-47
2022/05/03 05:34:13;;;;;;;0.60;0.50;;;;;;;19.06;43.60;101941.69;5046494;28;20124;-49
2022/05/03 05:36:38;;;;;;;0.60;0.57;;;;;;;19.08;43.71;101939.72;5041820;28;20045;-47
2022/05/03 05:39:04;;;;;;;0.60;0.60;;;;;;;19.08;44.09;101945.94;5043223;28;20040;-46
2022/05/03 05:41:29;;;;;;;1.08;0.50;;;;;;;19.08;43.96;101940.56;5037559;28;20029;-47
2022/05/03 05:43:54;;;;;;;0.80;0.70;;;;;;;19.07;43.71;101941.53;5038228;28;20028;-49
2022/05/03 05:46:20;;;;;;;0.50;0.50;;;;;;;19.08;43.72;101945.09;5045599;28;20048;-46
2022/05/03 05:48:45;;;;;;;0.70;0.63;;;;;;;19.07;43.86;101940.69;5044219;28;20025;-46
2022/05/03 05:51:11;;;;;;;0.60;0.60;;;;;;;19.07;44.29;101940.69;5035835;28;20098;-45
2022/05/03 05:53:36;;;;;;;0.90;0.65;;;;;;;19.07;43.64;101944.22;5039918;28;20061;-49
2022/05/03 05:56:03;;;;;;;0.73;0.70;;;;;;;19.07;43.79;101946.06;5045590;28;20028;-46
2022/05/03 05:58:29;;;;;;;0.68;0.68;;;;;;;19.07;43.77;101935.28;5042182;28;20040;-47
2022/05/03 06:00:54;;;;;;;0.80;0.68;;;;;;;19.06;44.02;101947.94;5045062;28;20030;-45
2022/05/03 06:03:22;;;;;;;0.90;0.70;;;;;;;19.01;44.08;101941.28;5040196;28;20021;-47
2022/05/03 06:05:47;;;;;;;0.73;0.50;;;;;;;19.05;44.10;101937.31;5045060;28;20030;-47
2022/05/03 06:08:12;;;;;;;0.60;0.60;;;;;;;19.07;44.32;101940.69;5046177;28;20124;-45
2022/05/03 06:10:38;;;;;;;0.63;0.60;;;;;;;19.07;44.06;101938.84;5065562;28;20085;-47
2022/05/03 06:13:03;;;;;;;0.60;0.60;;;;;;;19.06;43.98;101942.53;5065438;28;20029;-46
2022/05/03 06:15:30;;;;;;;0.63;0.63;;;;;;;19.07;44.07;101936.16;5049248;28;20422;-49
2022/05/03 06:17:55;;;;;;;0.80;0.70;;;;;;;19.08;44.12;101940.56;5044030;28;20026;-47
2022/05/03 06:20:20;;;;;;;0.88;0.70;;;;;;;19.06;44.29;101939.84;5044499;28;20022;-48
2022/05/03 06:22:45;;;;;;;0.60;0.60;;;;;;;19.09;43.98;101944.09;5042371;28;20032;-54
2022/05/03 06:25:11;;;;;;;0.82;0.60;;;;;;;19.09;44.09;101950.34;5039103;28;20047;-52
2022/05/03 06:27:40;;;;;;;0.65;0.65;;;;;;;19.06;44.50;101947.94;5041294;28;20029;-55
2022/05/03 06:30:07;;;;;;;0.55;0.55;;;;;;;19.09;44.40;101950.34;5042330;28;20028;-56
2022/05/03 06:32:33;;;;;;;0.50;0.50;;;;;;;19.09;44.14;101954.88;5042792;28;20620;-58
2022/05/03 06:34:58;;;;;;;0.68;0.68;;;;;;;19.10;44.16;101954.72;5041679;28;20025;-57
2022/05/03 06:37:24;;;;;;;0.60;0.60;;;;;;;19.11;44.45;101956.44;5041211;28;20060;-49
2022/05/03 06:39:49;;;;;;;0.60;0.60;;;;;;;19.02;44.21;101938.44;5042272;28;20578;-53
2022/05/03 06:42:15;;;;;;;0.75;0.65;;;;;;;19.09;44.56;101946.81;5043582;28;20674;-48
2022/05/03 06:44:41;;;;;;;0.68;0.60;;;;;;;19.13;44.14;101946.38;5043920;28;20033;-51
2022/05/03 06:47:07;;;;;;;0.60;0.60;;;;;;;19.15;44.41;101951.59;5043882;28;20033;-49
2022/05/03 06:49:32;;;;;;;0.60;0.60;;;;;;;19.16;44.26;101946.09;5044783;28;20021;-48
2022/05/03 06:51:57;;;;;;;0.60;0.60;;;;;;;19.13;44.52;101943.66;5044411;28;20055;-47
2022/05/03 06:54:22;;;;;;;0.50;0.50;;;;;;;19.18;44.57;101943.22;5044736;28;20029;-48
2022/05/03 06:56:47;;;;;;;0.90;0.75;;;;;;;19.19;44.54;101942.22;5044755;28;20036;-51
2022/05/03 06:59:12;;;;;;;0.95;0.60;;;;;;;19.21;44.65;101946.50;5043130;28;20029;-49
2022/05/03 07:01:38;;;;;;;0.82;0.63;;;;;;;19.21;44.54;101945.66;5042812;28;20034;-47
2022/05/03 07:04:03;;;;;;;0.98;0.70;;;;;;;19.22;44.74;101948.19;5044650;28;20033;-53
2022/05/03 07:06:28;;;;;;;0.88;0.70;;;;;;;19.22;44.80;101944.66;5044274;28;20017;-51
2022/05/03 07:08:53;;;;;;;0.95;0.82;;;;;;;19.25;44.66;101943.50;5044118;28;20034;-52
2022/05/03 07:11:19;;;;;;;0.80;0.80;;;;;;;19.25;44.40;101948.91;5044188;28;20034;-52
2022/05/03 07:13:44;;;;;;;1.05;0.80;;;;;;;19.24;44.33;101956.13;5044775;28;20029;-52
2022/05/03 07:16:10;;;;;;;0.80;0.60;;;;;;;19.19;44.51;101948.47;5053232;28;20044;-52
2022/05/03 07:24:04;;;;;;;0.70;0.60;;;;;;;19.25;44.46;101962.38;5044033;28;20478;-51
2022/05/03 07:26:30;;;;;;;0.93;0.80;;;;;;;19.24;44.38;101956.13;5044242;28;20498;-52
2022/05/03 07:28:56;;;;;;;1.00;0.90;;;;;;;19.25;44.45;101963.22;5043511;28;20049;-54
2022/05/03 07:31:21;;;;;;;1.05;0.80;;;;;;;19.25;44.15;101965.94;5044239;28;20025;-52
2022/05/03 07:33:48;;;;;;;1.00;0.90;;;;;;;19.28;44.33;101972.84;5043946;28;20116;-53
2022/05/03 07:36:13;;;;;;;0.82;0.68;;;;;;;19.27;44.34;101974.72;5043567;28;20109;-52
2022/05/03 07:38:40;;;;;;;0.80;0.80;;;;;;;19.28;43.87;101972.84;5043703;28;20029;-54
2022/05/03 07:41:06;;;;;;;1.00;0.90;;;;;;;19.26;44.42;101969.47;5043930;28;20029;-52
2022/05/03 07:43:32;;;;;;;1.05;0.95;;;;;;;19.28;43.88;101967.47;5043095;28;20029;-48
2022/05/03 07:45:57;;;;;;;0.80;0.70;;;;;;;19.24;44.15;101964.22;5043750;28;20037;-51
2022/05/03 07:48:23;;;;;;;1.35;1.02;;;;;;;19.15;44.13;101947.06;5024001;28;20395;-46
2022/05/03 07:50:48;;;;;;;0.80;0.77;;;;;;;19.28;44.11;101962.06;5023787;28;20022;-51
2022/05/03 07:53:13;;;;;;;1.23;1.00;;;;;;;19.26;44.03;101964.09;5023833;28;20048;-53
2022/05/03 07:55:39;;;;;;;1.00;0.90;;;;;;;19.28;44.14;101964.78;5023821;28;20033;-51
2022/05/03 07:58:04;;;;;;;0.80;0.80;;;;;;;19.28;43.78;101970.16;5023788;28;20113;-53
2022/05/03 08:00:29;;;;;;;0.98;0.98;;;;;;;19.27;44.06;101969.31;5023310;28;20041;-53
2022/05/03 08:02:55;;;;;;;0.93;0.82;;;;;;;19.27;43.76;101973.88;5023800;28;20042;-52
2022/05/03 08:05:20;;;;;;;1.48;0.90;;;;;;;19.27;43.95;101971.16;5023389;28;20642;-53
2022/05/03 08:07:47;;;;;;;1.25;0.93;;;;;;;19.27;43.78;101977.41;5024038;28;20045;-47
2022/05/03 08:10:12;;;;;;;0.70;0.70;;;;;;;19.26;43.70;101978.41;5022263;28;20025;-48
2022/05/03 08:12:37;;;;;;;1.20;0.90;;;;;;;19.26;43.70;101980.25;5023820;28;20065;-48
2022/05/03 08:15:04;;;;;;;1.77;0.90;;;;;;;19.22;43.77;101974.31;5041319;28;20028;-49
2022/05/03 08:17:30;;;;;;;1.02;0.80;;;;;;;19.22;43.88;101975.16;5041471;28;20037;-50
2022/05/03 08:19:56;;;;;;;1.33;1.10;;;;;;;19.20;43.97;101977.16;5042084;28;20449;-47
2022/05/03 08:22:21;;;;;;;1.30;0.98;;;;;;;19.18;43.92;101978.28;5042723;28;20029;-45
2022/05/03 08:24:46;;;;;;;1.15;0.90;;;;;;;19.20;43.95;101982.53;5042130;28;20025;-49
2022/05/03 08:27:12;;;;;;;1.65;1.13;;;;;;;19.18;43.73;101978.28;5042975;28;20552;-44
2022/05/03 08:29:37;;;;;;;1.00;0.90;;;;;;;19.20;44.12;101992.47;5042550;28;20026;-47
2022/05/03 08:32:03;;;;;;;1.05;0.80;;;;;;;19.19;44.00;101990.75;5043386;28;20027;-49
2022/05/03 08:34:29;;;;;;;1.25;0.90;;;;;;;19.15;43.80;101987.50;5043354;28;20072;-50
2022/05/03 08:42:23;;;;;;;0.70;0.70;;;;;;;19.16;43.92;101988.38;5043263;28;20115;-47
2022/05/03 08:44:49;;;;;;;1.23;1.10;;;;;;;19.16;43.65;101988.38;5042518;28;20116;-49
2022/05/03 08:47:18;;;;;;;0.85;0.80;;;;;;;19.17;43.80;101987.38;5042806;28;20219;-45
2022/05/03 08:50:03;;;;;;;0.73;0.73;;;;;;;19.17;43.61;101987.38;5043281;28;20047;-51
2022/05/03 08:52:33;;;;;;;0.60;0.60;;;;;;;19.15;43.94;101994.72;5043235;28;20064;-49
2022/05/03 08:54:59;;;;;;;1.10;1.00;;;;;;;19.12;43.85;101981.56;5035872;28;20033;-50
2022/05/03 08:57:24;;;;;;;1.08;0.98;;;;;;;19.12;43.94;101987.81;5042494;28;20056;-48
2022/05/03 08:59:50;;;;;;;0.93;0.90;;;;;;;19.12;44.13;101992.34;5040234;28;20029;-52
2022/05/03 09:02:15;;;;;;;0.82;0.70;;;;;;;19.14;43.80;102001.97;5042868;28;20735;-48
2022/05/03 09:04:40;;;;;;;0.77;0.77;;;;;;;19.10;43.73;101992.47;5042372;28;20478;-45
2022/05/03 09:07:20;;;;;;;1.45;1.00;;;;;;;19.16;43.81;101999.16;5042205;28;20612;-51
2022/05/03 09:09:46;;;;;;;0.80;0.80;;;;;;;19.12;43.86;101993.19;5042750;28;20108;-53
2022/05/03 09:12:26;;;;;;;1.38;0.90;;;;;;;19.17;43.99;102000.84;5039046;28;20040;-49
2022/05/03 09:14:52;;;;;;;1.30;1.20;;;;;;;19.15;43.88;102000.97;5037709;28;20056;-49
2022/05/03 09:17:51;;;;;;;1.00;0.90;;;;;;;19.16;43.98;102008.09;5040507;28;20041;-49
2022/05/03 09:26:11;;;;;;;1.55;0.98;;;;;;;19.12;44.10;101995.03;5043228;28;20059;-52
2022/05/03 09:28:49;;;;;;;1.00;0.90;;;;;;;19.16;43.94;101997.31;5043730;28;20052;-52
2022/05/03 09:31:37;;;;;;;1.27;0.93;;;;;;;19.17;44.39;101995.47;5044296;28;20041;-54
2022/05/03 09:34:25;;;;;;;0.80;0.80;;;;;;;19.16;44.07;101996.47;5043486;28;20033;-53
2022/05/03 09:36:55;;;;;;;1.10;0.90;;;;;;;19.17;44.39;101999.00;5041326;28;20057;-51
2022/05/03 09:39:35;;;;;;;1.52;1.20;;;;;;;19.18;44.30;102000.69;5043838;28;20025;-55
2022/05/03 09:42:07;;;;;;;1.45;1.17;;;;;;;19.18;44.41;101997.16;5043855;28;20487;-49
2022/05/03 09:44:36;;;;;;;1.13;0.90;;;;;;;19.11;44.28;101980.69;5042007;28;20025;-52
2022/05/03 09:47:06;;;;;;;0.80;0.80;;;;;;;19.22;44.07;101998.56;5043289;28;20072;-54
2022/05/03 09:49:36;;;;;;;1.13;0.90;;;;;;;19.22;44.15;101999.41;5042831;28;20022;-51
2022/05/03 09:52:03;;;;;;;1.33;1.23;;;;;;;19.21;44.08;101995.03;5043048;28;20029;-49
2022/05/03 09:54:28;;;;;;;1.27;0.98;;;;;;;19.23;44.17;101998.41;5042572;28;20033;-50
2022/05/03 09:56:54;;;;;;;1.50;0.90;;;;;;;19.22;44.17;102002.09;5058389;28;20083;-49
2022/05/03 09:59:20;;;;;;;1.02;0.93;;;;;;;19.22;44.53;101994.03;5041208;28;20056;-50
2022/05/03 10:01:45;;;;;;;1.35;1.10;;;;;;;19.22;44.47;101996.72;5042504;28;20033;-52
2022/05/03 10:04:12;;;;;;;1.02;0.93;;;;;;;19.24;44.30;101993.88;5043101;28;20049;-51
2022/05/03 10:06:38;;;;;;;1.10;0.95;;;;;;;19.25;44.34;102000.13;5040697;28;20088;-49
2022/05/03 10:09:03;;;;;;;1.33;1.02;;;;;;;19.27;44.79;101998.13;5042627;28;20088;-48
2022/05/03 10:11:29;;;;;;;1.10;1.00;;;;;;;19.26;44.35;101991.88;5042218;28;20040;-52
2022/05/03 10:13:54;;;;;;;0.98;0.80;;;;;;;19.25;44.60;101982.09;5041682;28;20025;-51
2022/05/03 10:22:02;;;;;;;1.02;0.93;;;;;;;19.32;44.56;101990.44;5003288;28;20052;-50
2022/05/03 10:24:28;;;;;;;1.10;1.00;;;;;;;19.31;44.56;101981.50;4984266;28;20054;-47
2022/05/03 10:27:01;;;;;;;1.10;1.00;;;;;;;19.32;44.31;101983.22;5001192;28;20031;-49
2022/05/03 10:29:26;;;;;;;1.10;1.00;;;;;;;19.33;44.35;101986.78;5000266;28;20117;-46
2022/05/03 10:32:07;;;;;;;1.38;1.10;;;;;;;19.35;44.58;101976.69;5001049;28;20101;-47
2022/05/03 10:34:42;;;;;;;1.20;1.00;;;;;;;19.35;44.43;101974.00;4999758;28;20026;-53
2022/05/03 10:37:08;;;;;;;1.00;0.90;;;;;;;19.35;44.34;101969.44;4996833;28;20057;-52
2022/05/03 10:39:33;;;;;;;1.00;0.90;;;;;;;19.37;44.46;101980.94;5000594;28;20098;-54
2022/05/03 10:42:13;;;;;;;1.27;1.17;;;;;;;19.40;44.31;101975.25;5002503;28;20046;-53
2022/05/03 10:44:53;;;;;;;1.27;1.17;;;;;;;19.40;44.71;101972.53;4995697;28;20117;-53
2022/05/03 10:47:39;;;;;;;1.48;1.33;;;;;;;19.41;44.88;101978.78;5000816;28;20034;-53
2022/05/03 10:50:17;;;;;;;1.42;1.10;;;;;;;19.41;44.83;101962.59;5000141;28;20053;-49
2022/05/03 10:53:07;;;;;;;2.03;1.30;;;;;;;19.41;44.71;101970.69;5001129;28;20038;-51
2022/05/03 10:55:35;;;;;;;1.60;1.45;;;;;;;19.35;45.03;101963.19;5018690;28;20049;-51
2022/05/03 10:58:20;;;;;;;2.58;1.80;;;;;;;19.39;44.69;101964.63;5040640;28;20033;-52
2022/05/03 11:01:09;;;;;;;1.48;1.20;;;;;;;19.39;44.92;101964.63;5041329;28;20032;-49
2022/05/03 11:03:35;;;;;;;;;;;;;;;19.32;44.95;101956.25;5043174;28;20110;-49
2022/05/03 11:06:17;;;;;;;1.80;1.40;;;;;;;19.36;44.81;101960.34;5041514;28;19909;-48
2022/05/03 11:08:57;;;;;;;2.30;1.90;;;;;;;19.38;44.99;101960.22;5042519;28;20026;-51
2022/05/03 11:11:43;;;;;;;1.65;1.13;;;;;;;19.38;44.93;101952.97;5042066;28;20032;-50
2022/05/03 11:14:15;;;;;;;1.80;1.40;;;;;;;19.38;44.80;101958.38;5041600;28;20021;-47
2022/05/03 11:16:41;;;;;;;1.58;1.20;;;;;;;19.38;44.79;101955.69;5042140;28;20033;-48
2022/05/03 11:19:12;;;;;;;2.38;1.65;;;;;;;19.38;45.03;101947.59;5042192;28;20039;-52
2022/05/03 11:21:37;;;;;;;2.40;1.63;;;;;;;19.38;45.00;101949.44;5041972;28;20029;-51
2022/05/03 11:24:03;;;;;;;1.85;1.38;;;;;;;19.40;45.02;101952.81;5042006;28;20044;-50
2022/05/03 11:26:29;;;;;;;1.60;1.40;;;;;;;19.38;44.90;101947.59;5041821;28;20138;-51
2022/05/03 11:28:58;;;;;;;1.77;1.33;;;;;;;19.39;45.17;101951.97;5041641;28;20032;-51
2022/05/03 11:31:25;;;;;;;1.60;1.38;;;;;;;19.39;45.13;101951.97;5042081;28;20033;-52
2022/05/03 11:33:56;;;;;;;1.85;1.42;;;;;;;19.40;45.18;101947.44;5042240;28;20052;-53
2022/05/03 11:36:22;;;;;;;2.00;1.73;;;;;;;19.40;44.88;101948.28;5041103;28;20065;-54
2022/05/03 11:38:49;;;;;;;1.77;1.20;;;;;;;19.41;44.92;101949.13;5041877;28;20041;-50
2022/05/03 11:41:14;;;;;;;3.05;1.83;;;;;;;19.42;44.82;101942.75;5041362;28;20092;-53
2022/05/03 11:43:40;;;;;;;1.85;1.52;;;;;;;19.42;45.14;101940.91;5040959;28;20057;-50
2022/05/03 11:46:05;;;;;;;1.70;1.40;;;;;;;19.43;45.09;101939.91;5040676;28;20033;-53
2022/05/03 11:48:31;;;;;;;2.88;1.85;;;;;;;19.43;45.00;101948.00;5042056;28;20112;-53
2022/05/03 11:56:26;;;;;;;2.03;1.67;;;;;;;19.44;45.03;101940.75;5039489;28;20056;-54
2022/05/03 11:58:51;;;;;;;2.47;1.55;;;;;;;19.44;45.20;101944.28;5040950;28;20067;-50
2022/05/03 12:01:17;;;;;;;1.92;1.70;;;;;;;19.40;45.29;101940.19;5040742;28;20033;-56
2022/05/03 12:03:55;;;;;;;2.08;1.63;;;;;;;19.43;45.19;101937.19;5037739;28;20033;-51
2022/05/03 12:06:21;;;;;;;2.83;2.08;;;;;;;19.43;45.24;101942.59;5036949;28;20061;-53
2022/05/03 12:08:48;;;;;;;2.72;2.00;;;;;;;19.43;45.20;101942.59;5038665;28;20063;-54
2022/05/03 12:11:21;;;;;;;3.10;2.08;;;;;;;19.43;45.58;101941.75;5038018;28;20017;-53
2022/05/03 12:13:47;;;;;;;3.72;2.22;;;;;;;19.43;45.87;101939.06;5039940;28;20032;-55